createdAt,value
2018-02-05T00:00:03.880Z,0.23
2018-02-05T00:01:05.209Z,0.18
2018-02-05T00:02:05.239Z,0.23
2018-02-05T00:03:07.953Z,0.15
2018-02-05T00:04:07.983Z,0.19
2018-02-05T00:05:08.611Z,0.23
2018-02-05T00:06:08.798Z,0.25
2018-02-05T00:07:09.784Z,0.16
2018-02-05T00:08:11.935Z,0.25
2018-02-05T00:09:12.468Z,0.19
2018-02-05T00:10:13.123Z,0.13
2018-02-05T00:11:14.185Z,0.13
2018-02-05T00:12:14.520Z,0.16
2018-02-05T00:13:15.951Z,0.29
2018-02-05T00:14:17.995Z,0.15
2018-02-05T00:15:18.084Z,0.21
2018-02-05T00:16:19.104Z,0.09
2018-02-05T00:17:20.097Z,0.25
2018-02-05T00:18:22.889Z,0.16
2018-02-05T00:19:22.136Z,0.25
2018-02-05T00:20:22.972Z,0.19
2018-02-05T00:21:25.512Z,0.19
2018-02-05T00:22:25.718Z,0.18
2018-02-05T00:23:27.091Z,0.09
2018-02-05T00:24:27.981Z,0.21
2018-02-05T00:25:28.223Z,0.21
2018-02-05T00:26:29.425Z,0.31
2018-02-05T00:27:30.135Z,0.29
2018-02-05T00:28:31.564Z,0.21
2018-02-05T00:29:32.540Z,0.09
2018-02-05T00:30:33.875Z,0.19
2018-02-05T00:31:34.179Z,0.25
2018-02-05T00:32:35.719Z,0.15
2018-02-05T00:33:37.486Z,0.12
2018-02-05T00:34:36.803Z,0.16
2018-02-05T00:35:38.544Z,0.1
2018-02-05T00:36:39.669Z,0.16
2018-02-05T00:37:40.585Z,0.21
2018-02-05T00:38:41.185Z,0.23
2018-02-05T00:39:42.097Z,0.19
2018-02-05T00:40:42.654Z,0.19
2018-02-05T00:41:44.097Z,0.18
2018-02-05T00:42:45.126Z,0.19
2018-02-05T00:43:46.480Z,0.13
2018-02-05T00:44:47.837Z,0.19
2018-02-05T00:45:48.720Z,0.15
2018-02-05T00:46:50.468Z,0.15
2018-02-05T00:47:50.112Z,0.09
2018-02-05T00:48:51.696Z,0.21
2018-02-05T00:49:52.020Z,0.15
2018-02-05T00:50:52.749Z,0.25
2018-02-05T00:51:53.827Z,0.23
2018-02-05T00:52:54.963Z,0.19
2018-02-05T00:53:58.379Z,0.16
2018-02-05T00:54:57.229Z,0.25
2018-02-05T00:55:57.907Z,0.21
2018-02-05T00:56:59.389Z,0.19
2018-02-05T00:58:00.473Z,0.23
2018-02-05T00:59:01.219Z,0.12
2018-02-05T01:00:01.953Z,0.21
2018-02-05T01:01:02.281Z,0.22
2018-02-05T01:02:03.985Z,0.21
2018-02-05T01:03:05.170Z,0.16
2018-02-05T01:04:07.725Z,0.16
2018-02-05T01:05:07.738Z,0.22
2018-02-05T01:06:08.039Z,0.15
2018-02-05T01:07:08.948Z,0.19
2018-02-05T01:08:10.184Z,0.12
2018-02-05T01:09:11.811Z,0.09
2018-02-05T01:10:11.806Z,0.09
2018-02-05T01:11:12.659Z,0.22
2018-02-05T01:12:14.460Z,0.23
2018-02-05T01:13:15.489Z,0.25
2018-02-05T01:14:16.052Z,0.15
2018-02-05T01:15:16.720Z,0.15
2018-02-05T01:16:17.821Z,0.09
2018-02-05T01:17:20.098Z,0.09
2018-02-05T01:18:19.775Z,0.04
2018-02-05T01:19:21.772Z,0.25
2018-02-05T01:20:22.213Z,0.16
2018-02-05T01:21:23.123Z,0.22
2018-02-05T01:22:24.065Z,0.18
2018-02-05T01:23:24.435Z,0.25
2018-02-05T01:24:25.728Z,0.23
2018-02-05T01:25:27.042Z,0.19
2018-02-05T01:26:28.292Z,0.19
2018-02-05T01:27:29.151Z,0.13
2018-02-05T01:28:30.118Z,0.1
2018-02-05T01:29:31.482Z,0.13
2018-02-05T01:30:31.493Z,0.19
2018-02-05T01:31:32.366Z,0.15
2018-02-05T01:32:33.390Z,0.1
2018-02-05T01:33:35.859Z,0.04
2018-02-05T01:34:35.754Z,0.18
2018-02-05T01:35:36.525Z,0.1
2018-02-05T01:36:37.662Z,0.13
2018-02-05T01:37:38.556Z,0.12
2018-02-05T01:38:39.420Z,0.13
2018-02-05T01:39:41.064Z,0.04
2018-02-05T01:40:43.542Z,0.1
2018-02-05T01:41:43.996Z,0.04
2018-02-05T01:42:44.077Z,0.15
2018-02-05T01:43:45.858Z,0.04
2018-02-05T01:44:46.785Z,0.1
2018-02-05T01:45:48.084Z,0.12
2018-02-05T01:46:47.804Z,0.15
2018-02-05T01:47:50.028Z,0.21
2018-02-05T01:48:50.777Z,0.25
2018-02-05T01:49:50.689Z,0.28
2018-02-05T01:50:52.073Z,0.31
2018-02-05T01:51:53.043Z,0.23
2018-02-05T01:52:54.425Z,0.15
2018-02-05T01:53:55.742Z,0.18
2018-02-05T01:54:57.925Z,0.21
2018-02-05T01:55:58.361Z,0.25
2018-02-05T01:56:58.781Z,0.29
2018-02-05T01:57:59.058Z,0.26
2018-02-05T01:59:00.033Z,0.21
2018-02-05T02:00:01.038Z,0.09
2018-02-05T02:01:01.653Z,0.15
2018-02-05T02:02:04.286Z,0.19
2018-02-05T02:03:04.191Z,0.19
2018-02-05T02:04:05.466Z,0.18
2018-02-05T02:05:07.183Z,0.13
2018-02-05T02:06:06.441Z,0.13
2018-02-05T02:07:07.458Z,0.1
2018-02-05T02:08:08.365Z,0.04
2018-02-05T02:09:10.112Z,0.1
2018-02-05T02:10:11.604Z,0.07
2018-02-05T02:11:12.047Z,0.03
2018-02-05T02:12:13.709Z,0.06
2018-02-05T02:13:14.129Z,0.03
2018-02-05T02:14:15.059Z,0.07
2018-02-05T02:15:16.109Z,0.03
2018-02-05T02:16:16.853Z,0.04
2018-02-05T02:17:17.738Z,0.06
2018-02-05T02:18:18.761Z,0.07
2018-02-05T02:19:21.198Z,0.06
2018-02-05T02:20:20.804Z,0.06
2018-02-05T02:21:22.092Z,0.01
2018-02-05T02:22:23.192Z,0.03
2018-02-05T02:23:23.296Z,0.03
2018-02-05T02:24:25.680Z,0
2018-02-05T02:25:28.102Z,0.07
2018-02-05T02:26:26.998Z,0
2018-02-05T02:27:29.583Z,0.03
2018-02-05T02:28:29.694Z,0.03
2018-02-05T02:29:29.947Z,0.07
2018-02-05T02:30:31.781Z,0.04
2018-02-05T02:31:33.343Z,0.07
2018-02-05T02:32:33.408Z,0.07
2018-02-05T02:33:35.055Z,0.03
2018-02-05T02:34:35.447Z,0.03
2018-02-05T02:35:35.690Z,0.03
2018-02-05T02:36:37.145Z,0.07
2018-02-05T02:37:38.014Z,0.04
2018-02-05T02:38:39.289Z,0.07
2018-02-05T02:39:39.397Z,0.04
2018-02-05T02:40:42.844Z,0.03
2018-02-05T02:41:42.095Z,0.1
2018-02-05T02:42:43.038Z,0.03
2018-02-05T02:43:45.667Z,0.1
2018-02-05T02:44:45.773Z,0.1
2018-02-05T02:45:46.543Z,0.03
2018-02-05T02:46:48.863Z,0.03
2018-02-05T02:47:47.369Z,0.03
2018-02-05T02:48:49.744Z,0.07
2018-02-05T02:49:50.401Z,0.12
2018-02-05T02:50:52.793Z,0.03
2018-02-05T02:51:52.671Z,0.13
2018-02-05T02:52:53.188Z,0.06
2018-02-05T02:53:54.047Z,0.12
2018-02-05T02:54:54.625Z,0.12
2018-02-05T02:55:57.422Z,0.12
2018-02-05T02:56:57.286Z,0.07
2018-02-05T02:57:58.335Z,0.06
2018-02-05T02:58:58.580Z,0.07
2018-02-05T03:00:00.026Z,0.03
2018-02-05T03:01:00.800Z,0.07
2018-02-05T03:02:02.620Z,0.07
2018-02-05T03:03:03.643Z,0.04
2018-02-05T03:04:03.268Z,0.03
2018-02-05T03:05:05.008Z,0.03
2018-02-05T03:06:06.193Z,0.12
2018-02-05T03:07:07.332Z,0.03
2018-02-05T03:08:08.553Z,0.07
2018-02-05T03:09:08.953Z,0.1
2018-02-05T03:10:10.181Z,0.03
2018-02-05T03:11:12.588Z,0.12
2018-02-05T03:12:11.846Z,0.1
2018-02-05T03:13:13.630Z,0.1
2018-02-05T03:14:14.967Z,0.03
2018-02-05T03:15:15.949Z,0.12
2018-02-05T03:16:18.011Z,0.12
2018-02-05T03:17:17.260Z,0.03
2018-02-05T03:18:18.860Z,0.07
2018-02-05T03:19:19.882Z,0.03
2018-02-05T03:20:20.585Z,0.13
2018-02-05T03:21:22.233Z,0.12
2018-02-05T03:22:21.809Z,0.12
2018-02-05T03:23:23.418Z,0.03
2018-02-05T03:24:23.897Z,0.12
2018-02-05T03:25:25.923Z,0.12
2018-02-05T03:26:26.581Z,0.12
2018-02-05T03:27:26.560Z,0.1
2018-02-05T03:28:27.445Z,0.1
2018-02-05T03:29:28.446Z,0.07
2018-02-05T03:30:30.737Z,0.1
2018-02-05T03:31:31.625Z,0.1
2018-02-05T03:32:33.517Z,0.03
2018-02-05T03:33:35.774Z,0.1
2018-02-05T03:34:34.092Z,0.03
2018-02-05T03:35:34.742Z,0.12
2018-02-05T03:36:37.561Z,0.12
2018-02-05T03:37:38.252Z,0.12
2018-02-05T03:38:38.519Z,0.1
2018-02-05T03:39:39.550Z,0.04
2018-02-05T03:40:40.018Z,0.12
2018-02-05T03:41:41.473Z,0.1
2018-02-05T03:42:42.037Z,0.13
2018-02-05T03:43:43.831Z,0.12
2018-02-05T03:44:45.030Z,0.1
2018-02-05T03:45:45.068Z,0.09
2018-02-05T03:46:46.443Z,0.13
2018-02-05T03:47:47.730Z,0.19
2018-02-05T03:48:49.282Z,0.09
2018-02-05T03:49:49.143Z,0.15
2018-02-05T03:50:50.223Z,0.09
2018-02-05T03:51:51.617Z,0.03
2018-02-05T03:52:51.298Z,0.04
2018-02-05T03:53:53.013Z,0.03
2018-02-05T03:54:54.012Z,0.03
2018-02-05T03:55:55.445Z,0.1
2018-02-05T03:56:56.171Z,0.07
2018-02-05T03:57:56.609Z,0.12
2018-02-05T03:58:58.397Z,0.18
2018-02-05T03:59:58.092Z,0.07
2018-02-05T04:00:59.307Z,0
2018-02-05T04:02:00.628Z,0.06
2018-02-05T04:03:02.532Z,0.03
2018-02-05T04:04:03.072Z,0.1
2018-02-05T04:05:04.587Z,0.1
2018-02-05T04:06:05.517Z,0.07
2018-02-05T04:07:06.340Z,0.03
2018-02-05T04:08:07.563Z,0
2018-02-05T04:09:08.003Z,0.06
2018-02-05T04:10:08.591Z,0.03
2018-02-05T04:11:09.623Z,0.07
2018-02-05T04:12:11.948Z,0.07
2018-02-05T04:13:12.626Z,0.06
2018-02-05T04:14:12.729Z,0.07
2018-02-05T04:15:14.226Z,0.07
2018-02-05T04:16:14.393Z,0.03
2018-02-05T04:17:17.683Z,0.12
2018-02-05T04:18:16.327Z,0.03
2018-02-05T04:19:18.994Z,0.07
2018-02-05T04:20:19.651Z,0.03
2018-02-05T04:21:20.712Z,0.03
2018-02-05T04:22:21.411Z,0.12
2018-02-05T04:23:22.060Z,0.07
2018-02-05T04:24:24.264Z,0.07
2018-02-05T04:25:23.686Z,0.1
2018-02-05T04:26:24.655Z,0.1
2018-02-05T04:27:27.352Z,0.12
2018-02-05T04:28:26.656Z,0.13
2018-02-05T04:29:29.071Z,0.03
2018-02-05T04:30:28.363Z,0.03
2018-02-05T04:31:29.732Z,0.13
2018-02-05T04:32:30.773Z,0.12
2018-02-05T04:33:31.399Z,0.03
2018-02-05T04:34:33.447Z,0.07
2018-02-05T04:35:34.685Z,0.04
2018-02-05T04:36:35.799Z,0.03
2018-02-05T04:37:36.472Z,0.03
2018-02-05T04:38:37.056Z,0.12
2018-02-05T04:39:38.032Z,0.12
2018-02-05T04:40:38.650Z,0.03
2018-02-05T04:41:40.439Z,0.06
2018-02-05T04:42:41.074Z,0.07
2018-02-05T04:43:41.734Z,0.06
2018-02-05T04:44:42.664Z,0.12
2018-02-05T04:45:43.663Z,0.09
2018-02-05T04:46:44.377Z,0.12
2018-02-05T04:47:46.387Z,0.12
2018-02-05T04:48:47.362Z,0.03
2018-02-05T04:49:47.984Z,0.12
2018-02-05T04:50:48.349Z,0.03
2018-02-05T04:51:50.591Z,0.04
2018-02-05T04:52:50.725Z,0.07
2018-02-05T04:53:51.268Z,0.07
2018-02-05T04:54:52.885Z,0.04
2018-02-05T04:55:54.634Z,0.1
2018-02-05T04:56:55.613Z,0.12
2018-02-05T04:57:56.414Z,0.12
2018-02-05T04:58:56.953Z,0.13
2018-02-05T05:00:03.495Z,0.12
2018-02-05T05:00:59.327Z,0.19
2018-02-05T05:02:01.062Z,0.03
2018-02-05T05:03:01.782Z,0.09
2018-02-05T05:04:01.989Z,0.19
2018-02-05T05:05:04.984Z,0.13
2018-02-05T05:06:05.046Z,0.12
2018-02-05T05:07:05.916Z,0.04
2018-02-05T05:08:06.590Z,0.1
2018-02-05T05:09:07.022Z,0.15
2018-02-05T05:10:42.061Z,0.15
2018-02-05T05:11:10.833Z,0.15
2018-02-05T05:12:10.249Z,0.18
2018-02-05T05:13:10.982Z,0.19
2018-02-05T05:14:12.302Z,0.21
2018-02-05T05:15:12.929Z,0.18
2018-02-05T05:16:13.303Z,0.23
2018-02-05T05:17:16.388Z,0.06
2018-02-05T05:18:15.649Z,0.03
2018-02-05T05:19:16.354Z,0.06
2018-02-05T05:20:17.987Z,0.03
2018-02-05T05:21:18.289Z,0.07
2018-02-05T05:22:20.072Z,0.03
2018-02-05T05:23:20.760Z,0.06
2018-02-05T05:24:21.303Z,0.07
2018-02-05T05:25:23.648Z,0.07
2018-02-05T05:26:26.097Z,0.12
2018-02-05T05:27:25.564Z,0.12
2018-02-05T05:28:27.235Z,0.1
2018-02-05T05:29:27.544Z,0.06
2018-02-05T05:30:28.492Z,0.07
2018-02-05T05:31:28.609Z,0.1
2018-02-05T05:32:29.556Z,0.03
2018-02-05T05:33:31.214Z,0.04
2018-02-05T05:34:33.077Z,0.12
2018-02-05T05:35:33.455Z,0.03
2018-02-05T05:36:35.609Z,0.03
2018-02-05T05:37:36.433Z,0.03
2018-02-05T05:38:37.240Z,0.1
2018-02-05T05:39:38.113Z,0.04
2018-02-05T05:40:38.846Z,0.09
2018-02-05T05:41:41.121Z,0.09
2018-02-05T05:42:41.557Z,0.09
2018-02-05T05:43:43.163Z,0.12
2018-02-05T05:44:42.338Z,0.12
2018-02-05T05:45:44.552Z,0.04
2018-02-05T05:46:43.834Z,0.15
2018-02-05T05:47:44.229Z,0.12
2018-02-05T05:48:45.680Z,0.1
2018-02-05T05:49:46.331Z,0.09
2018-02-05T05:50:47.379Z,0.15
2018-02-05T05:51:48.693Z,0.12
2018-02-05T05:52:50.487Z,0.12
2018-02-05T05:53:52.486Z,0.15
2018-02-05T05:54:51.851Z,0.13
2018-02-05T05:55:52.518Z,0.19
2018-02-05T05:56:54.751Z,0.19
2018-02-05T05:57:54.405Z,0.23
2018-02-05T05:58:55.708Z,0.21
2018-02-05T05:59:57.035Z,0.15
2018-02-05T06:00:58.765Z,0.19
2018-02-05T06:02:00.386Z,0.23
2018-02-05T06:03:01.291Z,0.19
2018-02-05T06:04:01.296Z,0.15
2018-02-05T06:05:02.266Z,0.15
2018-02-05T06:06:03.447Z,0.15
2018-02-05T06:07:04.255Z,0.15
2018-02-05T06:08:04.858Z,0.19
2018-02-05T06:09:06.038Z,0.18
2018-02-05T06:10:06.713Z,0.15
2018-02-05T06:11:07.936Z,0.19
2018-02-05T06:12:09.399Z,0.19
2018-02-05T06:13:10.100Z,0.19
2018-02-05T06:14:11.845Z,0.23
2018-02-05T06:15:13.259Z,0.25
2018-02-05T06:16:13.419Z,0.22
2018-02-05T06:17:14.292Z,0.16
2018-02-05T06:18:15.271Z,0.19
2018-02-05T06:19:16.496Z,0.22
2018-02-05T06:20:18.299Z,0.19
2018-02-05T06:21:18.313Z,0.15
2018-02-05T06:22:19.095Z,0.19
2018-02-05T06:23:22.603Z,0.21
2018-02-05T06:24:23.331Z,0.15
2018-02-05T06:25:22.392Z,0.21
2018-02-05T06:26:22.249Z,0.23
2018-02-05T06:27:24.796Z,0.16
2018-02-05T06:28:25.857Z,0.16
2018-02-05T06:29:26.132Z,0.15
2018-02-05T06:30:27.002Z,0.16
2018-02-05T06:31:28.813Z,0.21
2018-02-05T06:32:29.101Z,0.31
2018-02-05T06:33:30.507Z,0.23
2018-02-05T06:34:32.077Z,0.15
2018-02-05T06:35:32.390Z,0.23
2018-02-05T06:36:33.023Z,0.21
2018-02-05T06:37:33.641Z,0.19
2018-02-05T06:38:35.385Z,0.15
2018-02-05T06:39:37.379Z,0.29
2018-02-05T06:40:37.365Z,0.26
2018-02-05T06:41:37.749Z,0.15
2018-02-05T06:42:39.184Z,0.25
2018-02-05T06:45:20.686Z,0.23
2018-02-05T06:46:16.427Z,0.23
2018-02-05T06:47:16.181Z,0.18
2018-02-05T06:48:17.580Z,0.18
2018-02-05T06:49:18.247Z,0.22
2018-02-05T06:50:21.403Z,0.23
2018-02-05T06:51:19.857Z,0.19
2018-02-05T06:52:23.373Z,0.23
2018-02-05T06:53:22.895Z,0.25
2018-02-05T06:54:23.893Z,0.15
2018-02-05T06:55:26.739Z,0.23
2018-02-05T06:56:25.364Z,0.16
2018-02-05T06:57:28.874Z,0.23
2018-02-05T06:58:27.569Z,0.29
2018-02-05T06:59:28.863Z,0.23
2018-02-05T07:00:29.908Z,0.19
2018-02-05T07:01:31.195Z,0.23
2018-02-05T07:02:31.180Z,0.23
2018-02-05T07:03:32.588Z,0.16
2018-02-05T07:04:33.168Z,0.25
2018-02-05T07:06:04.056Z,0.18
2018-02-05T07:06:34.693Z,0.15
2018-02-05T07:07:36.401Z,0.15
2018-02-05T07:08:38.034Z,0.16
2018-02-05T07:09:39.011Z,0.12
2018-02-05T07:10:39.060Z,0.03
2018-02-05T07:11:40.136Z,0.03
2018-02-05T07:12:41.329Z,0.03
2018-02-05T07:13:41.658Z,0.03
2018-02-05T07:14:44.966Z,0.03
2018-02-05T07:15:44.461Z,0.03
2018-02-05T07:16:45.803Z,0.03
2018-02-05T07:17:47.105Z,0.04
2018-02-05T07:18:47.336Z,0.07
2018-02-05T07:19:48.889Z,0.07
2018-02-05T07:20:49.462Z,0.03
2018-02-05T07:21:51.495Z,0.03
2018-02-05T07:22:52.053Z,0.07
2018-02-05T07:23:51.603Z,0.04
2018-02-05T07:24:53.342Z,0.07
2018-02-05T07:25:54.432Z,0.07
2018-02-05T07:26:55.368Z,0
2018-02-05T07:27:55.752Z,0.07
2018-02-05T07:28:57.195Z,0.03
2018-02-05T07:29:57.393Z,0.03
2018-02-05T07:30:58.491Z,0.07
2018-02-05T07:32:01.007Z,0.04
2018-02-05T07:33:01.530Z,0.03
2018-02-05T07:34:02.159Z,0.03
2018-02-05T07:35:03.509Z,0.03
2018-02-05T07:36:05.446Z,0.06
2018-02-05T07:37:06.267Z,0.12
2018-02-05T07:38:06.085Z,0.13
2018-02-05T07:39:08.079Z,0.09
2018-02-05T07:40:08.219Z,0.04
2018-02-05T07:41:09.660Z,0.1
2018-02-05T07:42:10.084Z,0.03
2018-02-05T07:43:10.376Z,0.13
2018-02-05T07:44:11.989Z,0.03
2018-02-05T07:45:13.241Z,0.31
2018-02-05T07:46:15.797Z,0.13
2018-02-05T07:47:15.312Z,0.28
2018-02-05T07:48:16.926Z,0.25
2018-02-05T07:49:17.393Z,0.15
2018-02-05T07:50:18.099Z,0.31
2018-02-05T07:51:19.354Z,0.19
2018-02-05T07:52:20.421Z,0.1
2018-02-05T07:53:22.944Z,0.12
2018-02-05T07:54:21.734Z,0.18
2018-02-05T07:55:24.075Z,0.15
2018-02-05T07:56:23.673Z,0.15
2018-02-05T07:57:24.713Z,0.15
2018-02-05T07:58:25.982Z,0.16
2018-02-05T07:59:28.468Z,0.18
2018-02-05T08:00:28.165Z,0.15
2018-02-05T08:01:29.105Z,0.31
2018-02-05T08:02:31.829Z,0.12
2018-02-05T08:03:31.513Z,0.19
2018-02-05T08:04:34.396Z,0.23
2018-02-05T08:05:33.212Z,0.21
2018-02-05T08:06:34.339Z,0.19
2018-02-05T08:07:35.405Z,0.1
2018-02-05T08:12:23.386Z,0.03
2018-02-05T08:12:32.944Z,0.19
2018-02-05T08:13:58.516Z,0.1
2018-02-05T08:14:32.365Z,0.23
2018-02-05T08:15:30.853Z,0.22
2018-02-05T08:16:31.741Z,0.15
2018-02-05T08:17:33.390Z,0.25
2018-02-05T08:18:35.841Z,0.31
2018-02-05T08:19:35.790Z,0.28
2018-02-05T08:20:37.465Z,0.26
2018-02-05T08:21:37.419Z,0.28
2018-02-05T08:22:37.983Z,0.26
2018-02-05T08:23:38.716Z,0.29
2018-02-05T08:24:40.080Z,0.26
2018-02-05T08:25:40.735Z,0.22
2018-02-05T08:26:42.543Z,0.22
2018-02-05T08:27:43.687Z,0.23
2018-02-05T08:28:45.047Z,0.25
2018-02-05T08:29:44.767Z,0.23
2018-02-05T08:30:45.971Z,0.23
2018-02-05T08:31:46.278Z,0.23
2018-02-05T08:32:49.024Z,0.07
2018-02-05T08:33:50.899Z,0.07
2018-02-05T08:34:51.095Z,0.03
2018-02-05T08:35:52.591Z,0
2018-02-05T08:36:51.979Z,0.07
2018-02-05T08:37:54.151Z,0.06
2018-02-05T08:38:54.320Z,0.07
2018-02-05T08:39:57.988Z,0.06
2018-02-05T08:40:55.905Z,0.07
2018-02-05T08:41:57.248Z,0.07
2018-02-05T08:42:57.356Z,0.07
2018-02-05T08:43:58.980Z,0.03
2018-02-05T08:45:00.039Z,0.07
2018-02-05T08:46:00.940Z,0.01
2018-02-05T08:47:01.262Z,0.06
2018-02-05T08:48:03.239Z,0
2018-02-05T08:49:04.736Z,0.07
2018-02-05T08:50:06.068Z,0.03
2018-02-05T08:51:06.456Z,0.06
2018-02-05T08:52:07.818Z,0
2018-02-05T08:53:10.938Z,0.07
2018-02-05T08:54:10.847Z,0
2018-02-05T08:55:10.825Z,0.03
2018-02-05T08:56:10.672Z,0.01
2018-02-05T08:57:12.323Z,0
2018-02-05T08:58:13.331Z,0.06
2018-02-05T08:59:14.925Z,0.04
2018-02-05T09:00:16.818Z,0.03
2018-02-05T09:01:16.223Z,0.07
2018-02-05T09:02:18.098Z,0.03
2018-02-05T09:03:18.447Z,0.03
2018-02-05T09:04:20.164Z,0.07
2018-02-05T09:05:20.582Z,0
2018-02-05T09:06:21.381Z,0
2018-02-05T09:07:21.989Z,0.07
2018-02-05T09:08:23.132Z,0.21
2018-02-05T09:09:23.975Z,0.13
2018-02-05T09:10:25.641Z,0.1
2018-02-05T09:11:27.197Z,0.19
2018-02-05T09:12:26.923Z,0.13
2018-02-05T09:13:28.352Z,0.19
2018-02-05T09:14:29.929Z,0.09
2018-02-05T09:15:30.571Z,0.13
2018-02-05T09:16:32.288Z,0.1
2018-02-05T09:17:33.388Z,0.1
2018-02-05T09:18:33.994Z,0.03
2018-02-05T09:19:34.805Z,0.06
2018-02-05T09:20:35.440Z,0.07
2018-02-05T09:21:38.141Z,0.12
2018-02-05T09:22:37.040Z,0.07
2018-02-05T09:23:37.807Z,0.09
2018-02-05T09:24:40.437Z,0.15
2018-02-05T09:25:40.579Z,0.09
2018-02-05T09:26:42.047Z,0.09
2018-02-05T09:27:41.110Z,0.07
2018-02-05T09:28:42.475Z,0.13
2018-02-05T09:29:43.774Z,0.03
2018-02-05T09:30:46.180Z,0.06
2018-02-05T09:31:45.479Z,0.07
2018-02-05T09:32:47.135Z,0.07
2018-02-05T09:33:48.149Z,0.07
2018-02-05T09:34:49.252Z,0.04
2018-02-05T09:35:50.482Z,0.07
2018-02-05T09:36:52.051Z,0.09
2018-02-05T09:37:52.020Z,0.04
2018-02-05T09:38:52.752Z,0.01
2018-02-05T09:39:55.080Z,0.01
2018-02-05T09:40:55.123Z,0
2018-02-05T09:41:55.703Z,0
2018-02-05T09:42:56.661Z,0.1
2018-02-05T09:43:58.315Z,0
2018-02-05T09:44:58.650Z,0.03
2018-02-05T09:46:00.807Z,0.07
2018-02-05T09:47:01.717Z,0
2018-02-05T09:48:02.444Z,0.01
2018-02-05T09:49:03.316Z,0
2018-02-05T09:50:04.126Z,0.01
2018-02-05T09:51:06.170Z,0
2018-02-05T09:52:07.042Z,0.01
2018-02-05T09:53:07.449Z,0
2018-02-05T09:54:08.973Z,0.01
2018-02-05T09:55:09.497Z,0.03
2018-02-05T09:56:10.191Z,0.04
2018-02-05T09:57:10.673Z,0.03
2018-02-05T09:58:12.122Z,0.07
2018-02-05T09:59:13.703Z,0.07
2018-02-05T10:00:14.134Z,0.07
2018-02-05T10:01:15.435Z,0
2018-02-05T10:02:16.723Z,0.01
2018-02-05T10:03:17.642Z,0.01
2018-02-05T10:04:18.613Z,0
2018-02-05T10:05:24.427Z,0
2018-02-05T10:06:21.170Z,0
2018-02-05T10:07:21.887Z,0
2018-02-05T10:08:21.994Z,0.01
2018-02-05T10:09:23.355Z,0
2018-02-05T10:10:57.291Z,0
2018-02-05T10:11:25.792Z,0
2018-02-05T10:12:25.668Z,0.01
2018-02-05T10:13:26.447Z,0.01
2018-02-05T10:14:28.156Z,0.06
2018-02-05T10:15:28.697Z,0.03
2018-02-05T10:16:29.889Z,0.04
2018-02-05T10:17:30.501Z,0.07
2018-02-05T10:18:32.703Z,0.06
2018-02-05T10:19:33.746Z,0
2018-02-05T10:20:34.096Z,0.04
2018-02-05T10:21:36.142Z,0
2018-02-05T10:22:36.721Z,0.07
2018-02-05T10:23:37.745Z,0.03
2018-02-05T10:24:39.145Z,0.01
2018-02-05T10:25:40.351Z,0
2018-02-05T10:26:40.490Z,0.01
2018-02-05T10:27:40.700Z,0.03
2018-02-05T10:28:43.889Z,0
2018-02-05T10:29:43.392Z,0.07
2018-02-05T10:30:44.619Z,0.03
2018-02-05T10:31:46.158Z,0
2018-02-05T10:32:47.117Z,0.06
2018-02-05T10:33:47.385Z,0.01
2018-02-05T10:34:48.461Z,0.03
2018-02-05T10:35:49.149Z,0
2018-02-05T10:36:51.819Z,0
2018-02-05T10:37:51.372Z,0.03
2018-02-05T10:38:52.359Z,0
2018-02-05T10:39:54.126Z,0.03
2018-02-05T10:40:57.088Z,0
2018-02-05T10:41:56.122Z,0
2018-02-05T10:42:58.007Z,0.03
2018-02-05T10:43:58.727Z,0.01
2018-02-05T10:44:59.106Z,0
2018-02-05T10:46:00.418Z,0
2018-02-05T10:47:02.202Z,0.03
2018-02-05T10:48:01.654Z,0.03
2018-02-05T10:49:03.144Z,0.04
2018-02-05T10:50:03.631Z,0.06
2018-02-05T10:51:05.332Z,0.07
2018-02-05T10:52:06.735Z,0.07
2018-02-05T10:53:07.012Z,0.01
2018-02-05T10:54:07.322Z,0.03
2018-02-05T10:55:08.840Z,0.07
2018-02-05T10:56:09.365Z,0.03
2018-02-05T10:57:11.419Z,0.01
2018-02-05T10:58:12.299Z,0
2018-02-05T10:59:13.200Z,0
2018-02-05T11:00:14.785Z,0.03
2018-02-05T11:01:15.645Z,0.01
2018-02-05T11:02:16.912Z,0.03
2018-02-05T11:03:16.984Z,0
2018-02-05T11:04:19.501Z,0.04
2018-02-05T11:05:18.998Z,0.07
2018-02-05T11:06:21.660Z,0.07
2018-02-05T11:07:21.580Z,0.03
2018-02-05T11:08:22.349Z,0.03
2018-02-05T11:09:23.076Z,0.03
2018-02-05T11:10:24.701Z,0.03
2018-02-05T11:11:25.487Z,0.03
2018-02-05T11:12:27.349Z,0.06
2018-02-05T11:13:27.732Z,0.03
2018-02-05T11:14:28.433Z,0.03
2018-02-05T11:15:29.534Z,0.07
2018-02-05T11:16:29.327Z,0.03
2018-02-05T11:17:31.685Z,0.06
2018-02-05T11:18:32.645Z,0.03
2018-02-05T11:19:33.422Z,0.04
2018-02-05T11:20:35.645Z,0.03
2018-02-05T11:21:37.227Z,0.03
2018-02-05T11:22:36.773Z,0.06
2018-02-05T11:23:37.591Z,0.03
2018-02-05T11:24:37.976Z,0.03
2018-02-05T11:25:39.055Z,0.03
2018-02-05T11:26:40.824Z,0.03
2018-02-05T11:27:41.372Z,0.07
2018-02-05T11:28:41.917Z,0.03
2018-02-05T11:29:42.750Z,0.07
2018-02-05T11:30:43.838Z,0.06
2018-02-05T11:31:45.727Z,0.03
2018-02-05T11:32:46.986Z,0.03
2018-02-05T11:33:48.372Z,0.03
2018-02-05T11:34:48.331Z,0.03
2018-02-05T11:35:51.501Z,0.07
2018-02-05T11:36:52.548Z,0.03
2018-02-05T11:38:26.246Z,0.07
2018-02-05T11:38:52.985Z,0.04
2018-02-05T11:39:54.185Z,0.09
2018-02-05T11:40:55.056Z,0.1
2018-02-05T11:41:56.244Z,0.1
2018-02-05T11:42:56.646Z,0.07
2018-02-05T11:43:57.212Z,0.06
2018-02-05T11:44:57.566Z,0.07
2018-02-05T11:45:59.232Z,0.12
2018-02-05T11:46:59.869Z,0.12
2018-02-05T11:48:01.644Z,0.09
2018-02-05T11:49:01.737Z,0.12
2018-02-05T11:50:02.925Z,0.04
2018-02-05T11:51:04.276Z,0.12
2018-02-05T11:52:04.535Z,0.1
2018-02-05T11:53:06.707Z,0.03
2018-02-05T11:54:07.738Z,0.1
2018-02-05T11:55:09.182Z,0.09
2018-02-05T11:56:11.249Z,0.12
2018-02-05T11:57:11.026Z,0.12
2018-02-05T11:58:13.094Z,0.12
2018-02-05T11:59:11.898Z,0.16
2018-02-05T12:00:13.177Z,0.09
2018-02-05T12:01:13.889Z,0.09
2018-02-05T12:02:15.196Z,0.09
2018-02-05T12:03:16.631Z,0.13
2018-02-05T12:04:18.605Z,0.15
2018-02-05T12:05:17.922Z,0.13
2018-02-05T12:06:18.907Z,0.09
2018-02-05T12:07:19.775Z,0.16
2018-02-05T12:08:22.141Z,0.09
2018-02-05T12:09:22.629Z,0.12
2018-02-05T12:10:23.604Z,0.12
2018-02-05T12:11:24.114Z,0.1
2018-02-05T12:12:25.808Z,0.09
2018-02-05T12:13:27.627Z,0.1
2018-02-05T12:14:27.745Z,0.1
2018-02-05T12:15:27.987Z,0.12
2018-02-05T12:16:28.270Z,0.13
2018-02-05T12:17:29.381Z,0.13
2018-02-05T12:18:30.660Z,0.12
2018-02-05T12:19:32.079Z,0.1
2018-02-05T12:20:32.364Z,0.09
2018-02-05T12:21:34.545Z,0.1
2018-02-05T12:22:34.714Z,0.12
2018-02-05T12:23:35.537Z,0.1
2018-02-05T12:24:37.476Z,0.12
2018-02-05T12:25:37.741Z,0.12
2018-02-05T12:26:38.326Z,0.13
2018-02-05T12:27:39.812Z,0.09
2018-02-05T12:28:41.834Z,0.09
2018-02-05T12:29:42.638Z,0.13
2018-02-05T12:30:44.227Z,0.12
2018-02-05T12:31:44.432Z,0.13
2018-02-05T12:32:45.543Z,0.09
2018-02-05T12:33:46.519Z,0.13
2018-02-05T12:34:47.076Z,0.13
2018-02-05T12:35:48.069Z,0.13
2018-02-05T12:36:48.997Z,0.13
2018-02-05T12:37:50.257Z,0.12
2018-02-05T12:38:51.081Z,0.13
2018-02-05T12:39:51.679Z,0.12
2018-02-05T12:40:53.150Z,0.13
2018-02-05T12:41:54.082Z,0.09
2018-02-05T12:42:55.110Z,0.12
2018-02-05T12:43:56.356Z,0.13
2018-02-05T12:44:57.693Z,0.1
2018-02-05T12:45:58.010Z,0.16
2018-02-05T12:46:58.941Z,0.18
2018-02-05T12:48:00.680Z,0.18
2018-02-05T12:49:02.985Z,0.18
2018-02-05T12:50:01.607Z,0.15
2018-02-05T12:51:03.934Z,0.13
2018-02-05T12:52:04.541Z,0.13
2018-02-05T12:53:04.653Z,0.09
2018-02-05T12:54:13.749Z,0.12
2018-02-05T12:55:29.791Z,0.06
2018-02-05T12:56:08.574Z,0.07
2018-02-05T12:57:37.310Z,0.1
2018-02-05T12:58:10.942Z,0.07
2018-02-05T12:59:11.349Z,0.03
2018-02-05T13:00:12.031Z,0.07
2018-02-05T13:01:13.642Z,0.09
2018-02-05T13:02:14.401Z,0.13
2018-02-05T13:03:15.368Z,0.1
2018-02-05T13:04:16.257Z,0.07
2018-02-05T13:05:22.425Z,0.12
2018-02-05T13:06:23.046Z,0.09
2018-02-05T13:07:19.627Z,0.1
2018-02-05T13:08:19.494Z,0.1
2018-02-05T13:09:24.448Z,0.1
2018-02-05T13:10:22.581Z,0.1
2018-02-05T13:11:23.594Z,0.07
2018-02-05T13:12:24.523Z,0.09
2018-02-05T13:13:26.879Z,0.12
2018-02-05T13:14:27.582Z,0.09
2018-02-05T13:15:27.525Z,0.09
2018-02-05T13:16:28.125Z,0.1
2018-02-05T13:17:28.872Z,0.1
2018-02-05T13:18:30.737Z,0.07
2018-02-05T13:19:31.612Z,0.04
2018-02-05T13:20:31.858Z,0.09
2018-02-05T13:21:32.982Z,0.09
2018-02-05T13:22:34.333Z,0.18
2018-02-05T13:23:34.539Z,0.1
2018-02-05T13:24:39.647Z,0.09
2018-02-05T13:25:38.290Z,0.12
2018-02-05T13:26:39.282Z,0.09
2018-02-05T13:27:39.772Z,0.13
2018-02-05T13:28:41.597Z,0.09
2018-02-05T13:29:40.958Z,0.1
2018-02-05T13:30:42.847Z,0.13
2018-02-05T13:31:42.678Z,0.12
2018-02-05T13:32:43.809Z,0.18
2018-02-05T13:33:44.300Z,0.15
2018-02-05T13:34:46.611Z,0.13
2018-02-05T13:35:47.035Z,0.09
2018-02-05T13:36:50.618Z,0.12
2018-02-05T13:37:49.274Z,0.12
2018-02-05T13:38:50.577Z,0.15
2018-02-05T13:39:53.693Z,0.09
2018-02-05T13:40:52.391Z,0.09
2018-02-05T13:41:53.708Z,0.12